Fellsmere, Florida
Current Conditions -  °F | °C
As of 10:53 PM on Sunday 25 Jan 2015 (Local Time) from KVRB Reporting Station
Clear Clear  
Wind Chill: 46°   Ceiling: Unl
Heat Index: 48°   Visibility: 10mi
Dew Point: 43°   Wind: 5mph
Humidity: 83%   Direction: 230°SW
Pressure: 30"   Gusts: NA
Location:  27.77°N, 80.6°W
Report Text: KVRB 260353Z 23004KT 10SM CLR 09/06 A3000 RMK AO2 SLP157 T00890061
Loading
Personal Weather Stations






























Interactive Weather Map New forecast layout! Learn more

10-Day Weather Forecast

Advertisements
Track Severe Weather on mobile